createdAt,value
2022-08-17T00:00:01.516Z,17.00
2022-08-17T00:02:29.229Z,17.00
2022-08-17T00:04:57.994Z,17.00
2022-08-17T00:07:24.853Z,16.90
2022-08-17T00:09:51.678Z,16.90
2022-08-17T00:12:43.380Z,16.80
2022-08-17T00:15:09.180Z,16.80
2022-08-17T00:17:37.895Z,16.60
2022-08-17T00:20:06.001Z,16.60
2022-08-17T00:22:36.385Z,16.60
2022-08-17T00:25:13.679Z,16.50
2022-08-17T00:27:41.125Z,16.40
2022-08-17T00:30:11.614Z,16.40
2022-08-17T00:33:12.633Z,16.20
2022-08-17T00:35:32.524Z,16.20
2022-08-17T00:37:59.502Z,16.20
2022-08-17T00:40:26.900Z,16.20
2022-08-17T00:43:26.423Z,16.20
2022-08-17T00:45:54.955Z,16.20
2022-08-17T00:48:28.994Z,16.10
2022-08-17T00:51:41.397Z,16.00
2022-08-17T00:54:24.928Z,16.00
2022-08-17T00:57:07.614Z,16.00
2022-08-17T00:59:44.631Z,16.00
2022-08-17T01:02:15.018Z,16.00
2022-08-17T01:04:45.056Z,16.00
2022-08-17T01:07:12.934Z,16.00
2022-08-17T01:09:42.629Z,16.00
2022-08-17T01:12:10.667Z,15.90
2022-08-17T01:14:39.020Z,15.80
2022-08-17T01:17:07.069Z,15.90
2022-08-17T01:19:37.805Z,15.90
2022-08-17T01:22:14.321Z,16.00
2022-08-17T01:24:48.761Z,16.00
2022-08-17T01:27:18.530Z,16.10
2022-08-17T01:29:53.099Z,16.00
2022-08-17T01:32:20.492Z,16.00
2022-08-17T01:34:50.439Z,16.00
2022-08-17T01:37:21.113Z,16.10
2022-08-17T01:39:59.424Z,16.10
2022-08-17T01:42:52.189Z,16.10
2022-08-17T01:45:26.627Z,16.20
2022-08-17T01:47:54.515Z,16.30
2022-08-17T01:50:29.297Z,16.40
2022-08-17T01:53:00.582Z,16.50
2022-08-17T01:55:34.255Z,16.50
2022-08-17T01:58:01.310Z,16.50
2022-08-17T02:00:46.769Z,16.30
2022-08-17T02:03:16.268Z,16.20
2022-08-17T02:05:44.483Z,16.20
2022-08-17T02:08:19.824Z,16.10
2022-08-17T02:10:49.906Z,16.00
2022-08-17T02:13:19.613Z,15.90
2022-08-17T02:15:47.050Z,15.80
2022-08-17T02:18:15.850Z,15.70
2022-08-17T02:20:43.169Z,15.70
2022-08-17T02:23:13.028Z,15.60
2022-08-17T02:25:43.373Z,15.60
2022-08-17T02:28:10.657Z,15.60
2022-08-17T02:31:00.969Z,15.60
2022-08-17T02:33:24.888Z,15.50
2022-08-17T02:36:10.350Z,15.40
2022-08-17T02:38:39.373Z,15.40
2022-08-17T02:41:06.716Z,15.30
2022-08-17T02:43:33.825Z,15.30
2022-08-17T02:46:00.680Z,15.20
2022-08-17T02:48:30.710Z,15.20
2022-08-17T02:51:00.449Z,15.20
2022-08-17T02:53:27.982Z,15.20
2022-08-17T02:56:02.713Z,15.20
2022-08-17T02:58:35.115Z,15.20
2022-08-17T03:01:09.645Z,15.20
2022-08-17T03:03:38.229Z,15.30
2022-08-17T03:06:07.646Z,15.30
2022-08-17T03:08:35.223Z,15.40
2022-08-17T03:11:02.058Z,15.40
2022-08-17T03:13:30.657Z,15.50
2022-08-17T03:15:57.618Z,15.50
2022-08-17T03:18:26.322Z,15.60
2022-08-17T03:20:56.721Z,15.60
2022-08-17T03:23:25.710Z,15.70
2022-08-17T03:25:54.330Z,15.70
2022-08-17T03:28:22.329Z,15.80
2022-08-17T03:30:51.081Z,15.90
2022-08-17T03:33:19.275Z,16.00
2022-08-17T03:35:46.788Z,16.00
2022-08-17T03:38:15.867Z,15.90
2022-08-17T03:40:56.648Z,15.90
2022-08-17T03:43:30.394Z,15.80
2022-08-17T03:46:28.423Z,15.80
2022-08-17T03:49:26.037Z,15.80
2022-08-17T03:52:16.234Z,15.70
2022-08-17T03:55:03.401Z,15.70
2022-08-17T03:57:31.985Z,15.70
2022-08-17T03:59:59.698Z,15.60
2022-08-17T04:02:32.963Z,15.50
2022-08-17T04:05:00.611Z,15.40
2022-08-17T04:07:30.355Z,15.30
2022-08-17T04:09:58.156Z,15.30
2022-08-17T04:12:30.524Z,15.20
2022-08-17T04:14:58.266Z,15.20
2022-08-17T04:17:28.763Z,15.30
2022-08-17T04:19:56.114Z,15.30
2022-08-17T04:22:30.954Z,15.30
2022-08-17T04:24:59.306Z,15.20
2022-08-17T04:27:26.143Z,15.30
2022-08-17T04:29:54.905Z,15.40
2022-08-17T04:33:05.090Z,15.50
2022-08-17T04:35:10.186Z,15.60
2022-08-17T04:37:37.583Z,15.50
2022-08-17T04:40:27.518Z,15.60
2022-08-17T04:43:16.451Z,15.60
2022-08-17T04:45:55.779Z,15.70
2022-08-17T04:48:27.878Z,15.80
2022-08-17T04:51:04.846Z,15.80
2022-08-17T04:53:31.793Z,15.90
2022-08-17T04:55:59.059Z,15.90
2022-08-17T04:58:26.133Z,16.00
2022-08-17T05:00:53.353Z,16.10
2022-08-17T05:03:20.177Z,16.10
2022-08-17T05:05:50.007Z,16.20
2022-08-17T05:08:19.848Z,16.30
2022-08-17T05:10:48.802Z,16.40
2022-08-17T05:13:22.911Z,16.50
2022-08-17T05:15:55.087Z,16.60
2022-08-17T05:18:22.128Z,16.70
2022-08-17T05:20:52.596Z,16.90
2022-08-17T05:23:22.603Z,17.10
2022-08-17T05:25:52.277Z,17.30
2022-08-17T05:28:24.207Z,17.40
2022-08-17T05:30:57.896Z,17.60
2022-08-17T05:33:29.271Z,17.80
2022-08-17T05:35:59.201Z,17.90
2022-08-17T05:38:28.346Z,18.10
2022-08-17T05:40:55.893Z,18.20
2022-08-17T05:43:30.172Z,18.40
2022-08-17T05:46:24.268Z,18.60
2022-08-17T05:48:56.558Z,18.80
2022-08-17T05:51:38.512Z,18.80
2022-08-17T05:54:42.552Z,19.00
2022-08-17T05:57:34.657Z,19.20
2022-08-17T06:00:30.118Z,19.40
2022-08-17T06:03:14.762Z,19.60
2022-08-17T06:06:03.299Z,19.90
2022-08-17T06:09:02.242Z,20.20
2022-08-17T06:11:37.303Z,20.50
2022-08-17T06:14:44.665Z,20.70
2022-08-17T06:17:15.979Z,20.90
2022-08-17T06:19:51.399Z,21.10
2022-08-17T06:22:22.857Z,21.30
2022-08-17T06:25:25.914Z,21.30
2022-08-17T06:28:30.090Z,21.70
2022-08-17T06:31:07.188Z,22.20
2022-08-17T06:33:37.693Z,22.20
2022-08-17T06:36:26.435Z,22.60
2022-08-17T06:39:26.442Z,22.90
2022-08-17T06:43:05.150Z,23.20
2022-08-17T06:45:31.202Z,23.40
2022-08-17T06:48:33.851Z,23.40
2022-08-17T06:51:25.876Z,23.70
2022-08-17T06:54:26.069Z,24.00
2022-08-17T06:57:02.511Z,24.00
2022-08-17T06:59:55.362Z,24.20
2022-08-17T07:02:58.724Z,24.20
2022-08-17T07:05:44.756Z,24.30
2022-08-17T07:08:35.583Z,24.20
2022-08-17T07:11:07.929Z,24.40
2022-08-17T07:13:56.997Z,24.80
2022-08-17T07:16:39.233Z,25.10
2022-08-17T07:19:07.544Z,25.20
2022-08-17T07:21:56.227Z,25.20
2022-08-17T07:24:51.602Z,25.20
2022-08-17T07:27:42.843Z,25.40
2022-08-17T07:30:16.384Z,25.50
2022-08-17T07:32:46.337Z,25.70
2022-08-17T07:35:23.007Z,26.00
2022-08-17T07:38:28.417Z,26.10
2022-08-17T07:41:01.075Z,26.20
2022-08-17T07:43:54.557Z,26.60
2022-08-17T07:46:53.054Z,26.90
2022-08-17T07:49:41.606Z,27.10
2022-08-17T07:52:50.573Z,27.30
2022-08-17T07:55:34.861Z,27.70
2022-08-17T07:58:02.000Z,27.80
2022-08-17T08:00:32.395Z,27.60
2022-08-17T08:03:27.115Z,27.80
2022-08-17T08:06:03.206Z,27.90
2022-08-17T08:08:42.150Z,27.80
2022-08-17T08:11:16.773Z,27.90
2022-08-17T08:13:45.555Z,28.00
2022-08-17T08:16:24.232Z,28.00
2022-08-17T08:18:57.708Z,28.30
2022-08-17T08:21:47.168Z,28.40
2022-08-17T08:24:46.160Z,28.60
2022-08-17T08:27:46.243Z,28.60
2022-08-17T08:30:21.211Z,28.30
2022-08-17T08:33:09.182Z,28.40
2022-08-17T08:35:56.149Z,28.50
2022-08-17T08:38:44.988Z,28.60
2022-08-17T08:41:24.071Z,28.80
2022-08-17T08:44:08.404Z,29.10
2022-08-17T08:46:53.136Z,29.30
2022-08-17T08:50:01.239Z,29.10
2022-08-17T08:53:00.176Z,29.10
2022-08-17T08:56:03.864Z,29.10
2022-08-17T08:58:43.526Z,28.90
2022-08-17T09:01:39.130Z,28.60
2022-08-17T09:05:10.755Z,28.50
2022-08-17T09:07:54.642Z,28.60
2022-08-17T09:10:57.500Z,28.70
2022-08-17T09:14:00.381Z,29.00
2022-08-17T09:17:09.129Z,29.30
2022-08-17T09:19:56.998Z,29.40
2022-08-17T09:22:34.434Z,29.20
2022-08-17T09:25:16.710Z,29.20
2022-08-17T09:28:03.687Z,29.10
2022-08-17T09:30:46.323Z,29.30
2022-08-17T09:33:22.740Z,29.60
2022-08-17T09:36:26.306Z,30.00
2022-08-17T09:39:13.206Z,30.10
2022-08-17T09:41:49.313Z,30.10
2022-08-17T09:44:41.549Z,30.20
2022-08-17T09:47:42.029Z,30.10
2022-08-17T09:51:03.387Z,30.10
2022-08-17T09:53:32.036Z,30.10
2022-08-17T09:56:31.570Z,30.50
2022-08-17T09:59:38.176Z,30.60
2022-08-17T10:02:54.383Z,30.70
2022-08-17T10:05:57.115Z,30.90
2022-08-17T10:09:16.060Z,31.00
2022-08-17T10:12:12.708Z,30.90
2022-08-17T10:14:53.401Z,31.00
2022-08-17T10:17:56.298Z,31.50
2022-08-17T10:20:31.701Z,31.80
2022-08-17T10:23:56.256Z,31.30
2022-08-17T10:26:26.332Z,31.50
2022-08-17T10:28:59.990Z,31.70
2022-08-17T10:31:40.132Z,31.80
2022-08-17T10:34:51.801Z,31.80
2022-08-17T10:37:53.636Z,31.80
2022-08-17T10:40:54.390Z,32.20
2022-08-17T10:44:38.043Z,32.60
2022-08-17T10:47:14.354Z,32.30
2022-08-17T10:49:49.498Z,32.50
2022-08-17T10:52:30.390Z,32.90
2022-08-17T10:55:17.802Z,32.70
2022-08-17T10:57:50.084Z,32.60
2022-08-17T11:00:28.393Z,32.70
2022-08-17T11:02:57.478Z,32.90
2022-08-17T11:05:52.221Z,33.30
2022-08-17T11:08:56.902Z,33.50
2022-08-17T11:11:47.392Z,33.20
2022-08-17T11:14:41.841Z,32.70
2022-08-17T11:18:01.454Z,33.00
2022-08-17T11:20:49.237Z,33.00
2022-08-17T11:23:35.392Z,32.80
2022-08-17T11:26:19.018Z,33.20
2022-08-17T11:28:54.295Z,33.70
2022-08-17T11:31:46.553Z,33.60
2022-08-17T11:34:26.410Z,33.50
2022-08-17T11:37:03.650Z,33.80
2022-08-17T11:40:08.965Z,34.30
2022-08-17T11:42:54.587Z,34.50
2022-08-17T11:45:36.401Z,34.50
2022-08-17T11:49:25.642Z,34.40
2022-08-17T11:52:01.245Z,35.10
2022-08-17T11:54:33.649Z,34.60
2022-08-17T11:57:25.474Z,34.70
2022-08-17T12:00:12.398Z,35.10
2022-08-17T12:02:48.254Z,35.00
2022-08-17T12:05:16.856Z,35.00
2022-08-17T12:07:51.915Z,35.30
2022-08-17T12:10:31.490Z,35.50
2022-08-17T12:13:06.403Z,35.50
2022-08-17T12:15:41.576Z,35.30
2022-08-17T12:18:08.950Z,35.10
2022-08-17T12:20:41.432Z,35.30
2022-08-17T12:23:28.018Z,35.70
2022-08-17T12:26:17.578Z,36.20
2022-08-17T12:28:55.886Z,36.20
2022-08-17T12:31:44.902Z,36.20
2022-08-17T12:34:27.740Z,36.40
2022-08-17T12:37:22.427Z,36.30
2022-08-17T12:39:59.183Z,36.40
2022-08-17T12:42:37.702Z,35.60
2022-08-17T12:45:07.806Z,36.10
2022-08-17T12:47:38.037Z,36.50
2022-08-17T12:50:28.881Z,36.50
2022-08-17T12:53:01.732Z,36.30
2022-08-17T12:55:32.606Z,35.60
2022-08-17T12:58:02.359Z,35.80
2022-08-17T13:00:35.239Z,35.90
2022-08-17T13:03:13.282Z,35.90
2022-08-17T13:05:54.147Z,35.80
2022-08-17T13:08:35.469Z,35.80
2022-08-17T13:11:20.899Z,36.00
2022-08-17T13:13:53.341Z,36.50
2022-08-17T13:16:26.718Z,37.10
2022-08-17T13:18:55.272Z,37.30
2022-08-17T13:21:30.466Z,37.30
2022-08-17T13:24:13.732Z,37.30
2022-08-17T13:27:08.234Z,37.20
2022-08-17T13:29:51.528Z,37.00
2022-08-17T13:32:43.854Z,37.80
2022-08-17T13:35:44.145Z,38.20
2022-08-17T13:38:49.631Z,38.80
2022-08-17T13:41:35.882Z,38.70
2022-08-17T13:44:37.019Z,38.00
2022-08-17T13:47:16.328Z,37.80
2022-08-17T13:49:49.274Z,36.10
2022-08-17T13:52:52.382Z,35.70
2022-08-17T13:55:22.022Z,35.10
2022-08-17T13:57:57.786Z,35.90
2022-08-17T14:00:36.298Z,36.50
2022-08-17T14:03:05.464Z,36.20
2022-08-17T14:05:33.706Z,36.40
2022-08-17T14:08:06.503Z,36.30
2022-08-17T14:10:36.257Z,37.10
2022-08-17T14:13:03.552Z,37.10
2022-08-17T14:15:56.108Z,36.90
2022-08-17T14:18:35.480Z,37.30
2022-08-17T14:21:08.381Z,37.90
2022-08-17T14:23:36.660Z,38.10
2022-08-17T14:26:03.889Z,38.60
2022-08-17T14:28:30.730Z,39.40
2022-08-17T14:31:00.685Z,38.60
2022-08-17T14:33:28.882Z,39.00
2022-08-17T14:35:57.436Z,40.00
2022-08-17T14:38:24.648Z,40.60
2022-08-17T14:40:51.843Z,40.10
2022-08-17T14:43:20.393Z,40.90
2022-08-17T14:45:47.529Z,41.60
2022-08-17T14:48:14.459Z,42.50
2022-08-17T14:50:43.189Z,42.70
2022-08-17T14:53:12.693Z,42.70
2022-08-17T14:55:40.352Z,42.40
2022-08-17T14:58:08.675Z,42.40
2022-08-17T15:00:39.358Z,42.50
2022-08-17T15:03:06.255Z,43.00
2022-08-17T15:05:37.135Z,43.10
2022-08-17T15:08:05.617Z,43.40
2022-08-17T15:10:33.210Z,43.10
2022-08-17T15:13:00.622Z,43.60
2022-08-17T15:15:28.782Z,44.20
2022-08-17T15:17:56.031Z,44.40
2022-08-17T15:20:27.915Z,43.10
2022-08-17T15:22:56.134Z,43.50
2022-08-17T15:25:27.418Z,43.90
2022-08-17T15:27:55.808Z,44.10
2022-08-17T15:30:23.533Z,43.90
2022-08-17T15:32:54.557Z,42.90
2022-08-17T15:35:28.388Z,41.10
2022-08-17T15:38:10.720Z,39.90
2022-08-17T15:40:46.674Z,38.20
2022-08-17T15:43:27.746Z,36.90
2022-08-17T15:46:00.246Z,36.60
2022-08-17T15:48:42.083Z,36.10
2022-08-17T15:51:21.356Z,35.90
2022-08-17T15:53:52.920Z,35.40
2022-08-17T15:56:20.560Z,35.20
2022-08-17T15:58:48.846Z,34.70
2022-08-17T16:01:35.160Z,34.50
2022-08-17T16:04:26.487Z,34.20
2022-08-17T16:06:54.223Z,33.90
2022-08-17T16:09:21.046Z,33.80
2022-08-17T16:11:52.185Z,33.60
2022-08-17T16:14:22.575Z,33.40
2022-08-17T16:16:51.076Z,33.30
2022-08-17T16:19:17.928Z,33.10
2022-08-17T16:21:44.807Z,32.80
2022-08-17T16:24:13.080Z,32.70
2022-08-17T16:26:40.868Z,32.50
2022-08-17T16:29:08.904Z,32.30
2022-08-17T16:31:37.593Z,32.00
2022-08-17T16:34:17.354Z,31.90
2022-08-17T16:36:54.722Z,31.70
2022-08-17T16:39:26.348Z,31.40
2022-08-17T16:41:53.328Z,31.10
2022-08-17T16:44:21.726Z,30.70
2022-08-17T16:46:50.249Z,30.60
2022-08-17T16:49:25.711Z,30.60
2022-08-17T16:52:07.431Z,30.50
2022-08-17T16:54:35.374Z,30.50
2022-08-17T16:57:05.033Z,30.30
2022-08-17T16:59:40.720Z,30.20
2022-08-17T17:02:11.270Z,30.20
2022-08-17T17:04:53.664Z,30.10
2022-08-17T17:08:03.360Z,30.00
2022-08-17T17:10:45.696Z,29.70
2022-08-17T17:13:35.591Z,29.50
2022-08-17T17:16:28.531Z,29.40
2022-08-17T17:19:10.750Z,29.30
2022-08-17T17:21:47.212Z,29.20
2022-08-17T17:24:25.135Z,29.20
2022-08-17T17:26:56.715Z,29.10
2022-08-17T17:30:04.595Z,29.00
2022-08-17T17:32:56.458Z,28.90
2022-08-17T17:35:34.588Z,28.80
2022-08-17T17:38:15.313Z,28.80
2022-08-17T17:40:50.763Z,28.70
2022-08-17T17:43:38.157Z,28.60
2022-08-17T17:46:28.278Z,28.50
2022-08-17T17:48:59.334Z,28.40
2022-08-17T17:52:08.729Z,28.40
2022-08-17T17:55:08.305Z,28.30
2022-08-17T17:57:44.802Z,28.10
2022-08-17T18:00:24.545Z,27.90
2022-08-17T18:03:19.390Z,27.70
2022-08-17T18:06:10.320Z,27.60
2022-08-17T18:09:10.250Z,27.50
2022-08-17T18:12:05.355Z,27.30
2022-08-17T18:15:09.948Z,27.10
2022-08-17T18:17:36.997Z,26.90
2022-08-17T18:20:07.353Z,26.80
2022-08-17T18:22:34.278Z,26.60
2022-08-17T18:25:01.500Z,26.40
2022-08-17T18:27:39.484Z,26.30
2022-08-17T18:30:12.480Z,26.10
2022-08-17T18:32:46.718Z,25.80
2022-08-17T18:35:16.168Z,25.60
2022-08-17T18:38:20.098Z,25.50
2022-08-17T18:41:20.083Z,25.40
2022-08-17T18:44:05.541Z,25.30
2022-08-17T18:46:36.571Z,25.20
2022-08-17T18:49:28.947Z,25.20
2022-08-17T18:52:28.808Z,25.20
2022-08-17T18:55:13.206Z,25.10
2022-08-17T18:57:52.299Z,25.10
2022-08-17T19:00:32.086Z,25.10
2022-08-17T19:03:16.748Z,25.00
2022-08-17T19:05:54.670Z,24.90
2022-08-17T19:08:33.557Z,24.80
2022-08-17T19:11:10.423Z,24.80
2022-08-17T19:13:53.605Z,24.70
2022-08-17T19:16:27.396Z,24.70
2022-08-17T19:19:19.571Z,24.60
2022-08-17T19:21:59.521Z,24.50
2022-08-17T19:24:30.949Z,24.40
2022-08-17T19:27:08.014Z,24.40
2022-08-17T19:29:57.997Z,24.40
2022-08-17T19:32:34.287Z,24.30
2022-08-17T19:35:03.115Z,24.30
2022-08-17T19:37:58.877Z,24.20
2022-08-17T19:40:52.743Z,24.30
2022-08-17T19:43:51.425Z,24.30
2022-08-17T19:46:50.688Z,24.40
2022-08-17T19:49:45.568Z,24.50
2022-08-17T19:52:47.422Z,24.60
2022-08-17T19:55:53.697Z,24.50
2022-08-17T19:58:48.294Z,24.50
2022-08-17T20:01:45.496Z,24.60
2022-08-17T20:04:32.446Z,24.50
2022-08-17T20:07:54.569Z,24.50
2022-08-17T20:11:18.403Z,24.40
2022-08-17T20:14:00.078Z,24.30
2022-08-17T20:16:27.109Z,24.20
2022-08-17T20:19:08.786Z,24.10
2022-08-17T20:22:04.353Z,24.00
2022-08-17T20:24:51.093Z,24.00
2022-08-17T20:27:32.152Z,24.00
2022-08-17T20:29:59.091Z,23.90
2022-08-17T20:32:52.742Z,23.90
2022-08-17T20:35:39.464Z,23.90
2022-08-17T20:38:14.262Z,23.80
2022-08-17T20:41:01.107Z,23.80
2022-08-17T20:43:33.973Z,23.80
2022-08-17T20:46:32.894Z,23.80
2022-08-17T20:49:14.975Z,23.70
2022-08-17T20:52:00.840Z,23.70
2022-08-17T20:54:54.818Z,23.70
2022-08-17T20:57:37.571Z,23.70
2022-08-17T21:00:16.351Z,23.70
2022-08-17T21:02:51.955Z,23.70
2022-08-17T21:05:34.666Z,23.80
2022-08-17T21:08:17.110Z,23.90
2022-08-17T21:10:47.009Z,24.00
2022-08-17T21:13:15.348Z,24.00
2022-08-17T21:15:52.506Z,24.00
2022-08-17T21:19:10.101Z,24.00
2022-08-17T21:21:58.161Z,24.00
2022-08-17T21:25:02.656Z,24.00
2022-08-17T21:28:02.951Z,24.10
2022-08-17T21:30:30.360Z,24.10
2022-08-17T21:33:20.075Z,24.10
2022-08-17T21:36:11.776Z,24.20
2022-08-17T21:38:47.205Z,24.20
2022-08-17T21:41:31.187Z,24.20
2022-08-17T21:44:46.971Z,24.20
2022-08-17T21:47:18.737Z,24.20
2022-08-17T21:49:45.575Z,24.20
2022-08-17T21:52:17.576Z,24.20
2022-08-17T21:55:02.359Z,24.20
2022-08-17T21:57:30.105Z,24.30
2022-08-17T22:00:00.440Z,24.20
2022-08-17T22:02:41.743Z,24.30
2022-08-17T22:05:14.619Z,24.20
2022-08-17T22:07:45.745Z,24.20
2022-08-17T22:10:33.255Z,24.20
2022-08-17T22:13:21.513Z,24.30
2022-08-17T22:16:15.614Z,24.20
2022-08-17T22:18:57.558Z,24.20
2022-08-17T22:21:24.637Z,24.20
2022-08-17T22:24:21.125Z,24.20
2022-08-17T22:27:11.897Z,24.30
2022-08-17T22:29:53.182Z,24.20
2022-08-17T22:32:46.320Z,24.20
2022-08-17T22:35:24.872Z,24.20
2022-08-17T22:37:52.013Z,24.10
2022-08-17T22:40:31.771Z,23.80
2022-08-17T22:43:00.730Z,23.70
2022-08-17T22:45:33.763Z,23.50
2022-08-17T22:48:02.026Z,23.30
2022-08-17T22:50:32.966Z,22.90
2022-08-17T22:53:32.785Z,22.50
2022-08-17T22:56:18.611Z,22.20
2022-08-17T22:59:13.307Z,22.00
2022-08-17T23:01:42.777Z,21.60
2022-08-17T23:04:35.776Z,21.50
2022-08-17T23:07:02.682Z,21.40
2022-08-17T23:09:29.894Z,21.10
2022-08-17T23:11:58.627Z,21.10
2022-08-17T23:14:31.379Z,21.00
2022-08-17T23:16:59.590Z,20.90
2022-08-17T23:19:27.953Z,20.80
2022-08-17T23:21:56.303Z,20.70
2022-08-17T23:24:26.632Z,20.70
2022-08-17T23:26:57.235Z,20.50
2022-08-17T23:29:29.560Z,20.40
2022-08-17T23:31:59.877Z,20.30
2022-08-17T23:34:28.090Z,20.20
2022-08-17T23:36:56.241Z,20.10
2022-08-17T23:39:27.519Z,20.00
2022-08-17T23:41:58.199Z,20.00
2022-08-17T23:44:25.821Z,20.00
2022-08-17T23:46:53.385Z,20.00
2022-08-17T23:49:20.626Z,20.00
2022-08-17T23:51:48.459Z,20.00
2022-08-17T23:54:44.041Z,20.00
2022-08-17T23:57:17.665Z,20.00
2022-08-17T23:59:45.515Z,20.00
